createdAt,value
2022-12-19T00:01:11.012Z,48.22
2022-12-19T00:03:43.982Z,51.97
2022-12-19T00:06:11.278Z,50.03
2022-12-19T00:08:45.117Z,62.08
2022-12-19T00:11:12.726Z,52.85
2022-12-19T00:13:45.936Z,50.42
2022-12-19T00:16:21.914Z,51.78
2022-12-19T00:18:55.982Z,56.55
2022-12-19T00:21:25.446Z,60.67
2022-12-19T00:23:59.232Z,62.65
2022-12-19T00:26:41.153Z,56.63
2022-12-19T00:29:13.863Z,64.50
2022-12-19T00:31:48.060Z,54.50
2022-12-19T00:34:15.336Z,53.35
2022-12-19T00:36:49.001Z,55.67
2022-12-19T00:39:16.016Z,53.47
2022-12-19T00:41:49.948Z,54.53
2022-12-19T00:44:16.916Z,55.20
2022-12-19T00:46:52.599Z,51.15
2022-12-19T00:49:21.084Z,54.40
2022-12-19T00:51:54.171Z,57.78
2022-12-19T00:54:28.037Z,56.42
2022-12-19T00:57:01.973Z,60.20
2022-12-19T00:59:34.946Z,57.67
2022-12-19T01:02:08.152Z,69.40
2022-12-19T01:04:42.212Z,71.82
2022-12-19T01:07:09.676Z,66.80
2022-12-19T01:09:42.933Z,70.43
2022-12-19T01:12:17.964Z,68.13
2022-12-19T01:14:45.008Z,62.55
2022-12-19T01:17:19.142Z,59.40
2022-12-19T01:19:46.154Z,67.07
2022-12-19T01:22:19.981Z,70.18
2022-12-19T01:24:54.629Z,71.30
2022-12-19T01:27:27.954Z,67.10
2022-12-19T01:30:01.002Z,71.75
2022-12-19T01:32:33.996Z,65.30
2022-12-19T01:35:01.838Z,66.93
2022-12-19T01:37:28.856Z,66.20
2022-12-19T01:40:01.976Z,58.42
2022-12-19T01:42:37.086Z,60.50
2022-12-19T01:45:17.269Z,60.47
2022-12-19T01:47:57.260Z,55.08
2022-12-19T01:50:41.807Z,62.35
2022-12-19T01:53:21.961Z,74.80
2022-12-19T01:55:55.969Z,78.32
2022-12-19T01:58:22.961Z,78.65
2022-12-19T02:00:57.018Z,72.18
2022-12-19T02:03:31.474Z,65.45
2022-12-19T02:06:04.980Z,68.32
2022-12-19T02:08:38.238Z,72.72
2022-12-19T02:11:05.717Z,70.65
2022-12-19T02:13:32.710Z,59.20
2022-12-19T02:16:47.039Z,56.08
2022-12-19T02:19:22.720Z,54.78
2022-12-19T02:22:05.969Z,61.53
2022-12-19T02:24:44.980Z,54.63
2022-12-19T02:27:51.799Z,58.92
2022-12-19T02:31:01.953Z,65.45
2022-12-19T02:33:54.405Z,62.40
2022-12-19T02:36:44.428Z,66.95
2022-12-19T02:39:46.928Z,64.70
2022-12-19T02:42:27.424Z,63.05
2022-12-19T02:45:03.606Z,61.25
2022-12-19T02:47:31.609Z,61.00
2022-12-19T02:50:05.340Z,63.72
2022-12-19T02:52:32.181Z,62.53
2022-12-19T02:55:18.008Z,59.08
2022-12-19T02:58:05.042Z,61.97
2022-12-19T03:00:37.997Z,58.58
2022-12-19T03:03:19.615Z,63.92
2022-12-19T03:06:15.026Z,63.40
2022-12-19T03:09:03.070Z,52.78
2022-12-19T03:11:42.004Z,52.40
2022-12-19T03:14:14.931Z,49.85
2022-12-19T03:16:48.112Z,52.50
2022-12-19T03:19:21.981Z,53.60
2022-12-19T03:21:48.983Z,53.95
2022-12-19T03:24:23.040Z,56.58
2022-12-19T03:27:10.376Z,51.80
2022-12-19T03:29:58.037Z,47.35
2022-12-19T03:32:24.884Z,51.45
2022-12-19T03:35:10.055Z,46.30
2022-12-19T03:37:39.108Z,64.07
2022-12-19T03:40:20.010Z,54.50
2022-12-19T03:42:55.015Z,47.95
2022-12-19T03:46:00.127Z,50.70
2022-12-19T03:48:43.534Z,51.00
2022-12-19T03:51:59.253Z,49.28
2022-12-19T03:54:29.473Z,54.58
2022-12-19T03:57:26.050Z,54.20
2022-12-19T04:00:00.049Z,53.00
2022-12-19T04:02:33.106Z,50.60
2022-12-19T04:05:10.010Z,52.28
2022-12-19T04:07:39.930Z,54.28
2022-12-19T04:10:19.015Z,57.22
2022-12-19T04:12:56.192Z,63.50
2022-12-19T04:15:40.118Z,57.85
2022-12-19T04:18:07.127Z,54.35
2022-12-19T04:20:34.842Z,58.85
2022-12-19T04:23:32.048Z,51.65
2022-12-19T04:26:01.962Z,51.30
2022-12-19T04:28:55.077Z,51.92
2022-12-19T04:31:28.128Z,52.85
2022-12-19T04:33:55.050Z,59.17
2022-12-19T04:36:22.080Z,68.80
2022-12-19T04:38:55.073Z,59.65
2022-12-19T04:41:22.056Z,59.00
2022-12-19T04:43:55.074Z,45.17
2022-12-19T04:46:22.078Z,50.20
2022-12-19T04:53:29.769Z,45.00
2022-12-19T04:57:15.745Z,43.33
2022-12-19T05:00:47.160Z,41.28
2022-12-19T05:03:14.121Z,41.47
2022-12-19T05:05:47.151Z,43.88
2022-12-19T05:08:14.075Z,42.28
2022-12-19T05:10:47.099Z,37.75
2022-12-19T05:13:14.028Z,41.75
2022-12-19T05:15:48.092Z,38.58
2022-12-19T05:18:15.006Z,48.63
2022-12-19T05:20:49.114Z,46.55
2022-12-19T05:23:23.026Z,44.35
2022-12-19T05:25:50.304Z,43.17
2022-12-19T05:28:24.056Z,47.97
2022-12-19T05:30:52.598Z,42.25
2022-12-19T05:33:36.484Z,48.83
2022-12-19T05:36:10.101Z,43.50
2022-12-19T05:38:37.169Z,46.10
2022-12-19T05:41:19.154Z,48.28
2022-12-19T05:43:49.468Z,39.85
2022-12-19T05:46:26.138Z,43.20
2022-12-19T05:48:53.176Z,44.25
2022-12-19T05:51:27.067Z,44.70
2022-12-19T05:54:00.130Z,37.90
2022-12-19T05:56:27.204Z,42.13
2022-12-19T05:59:01.092Z,39.85
2022-12-19T06:01:35.169Z,41.88
2022-12-19T06:04:09.136Z,40.47
2022-12-19T06:06:36.064Z,43.22
2022-12-19T06:09:02.918Z,44.58
2022-12-19T06:11:36.131Z,37.95
2022-12-19T06:14:03.019Z,41.10
2022-12-19T06:16:36.100Z,42.83
2022-12-19T06:19:02.974Z,38.75
2022-12-19T06:21:39.762Z,45.28
2022-12-19T06:24:15.380Z,39.03
2022-12-19T06:26:49.175Z,37.92
2022-12-19T06:29:23.077Z,41.28
2022-12-19T06:31:50.186Z,40.63
2022-12-19T06:34:47.224Z,43.40
2022-12-19T06:37:12.049Z,41.53
2022-12-19T06:39:45.127Z,40.80
2022-12-19T06:42:11.966Z,47.83
2022-12-19T06:44:45.097Z,36.97
2022-12-19T06:47:12.038Z,40.63
2022-12-19T06:49:45.188Z,43.13
2022-12-19T06:52:18.128Z,38.95
2022-12-19T06:54:45.033Z,38.92
2022-12-19T06:57:11.960Z,36.97
2022-12-19T06:59:45.078Z,37.13
2022-12-19T07:02:18.195Z,37.53
2022-12-19T07:04:58.153Z,37.03
2022-12-19T07:07:25.058Z,42.47
2022-12-19T07:09:58.145Z,41.72
2022-12-19T07:12:31.281Z,47.72
2022-12-19T07:14:58.201Z,50.88
2022-12-19T07:17:25.292Z,56.88
2022-12-19T07:20:00.101Z,55.20
2022-12-19T07:22:30.915Z,53.15
2022-12-19T07:25:04.090Z,53.28
2022-12-19T07:27:35.675Z,60.10
2022-12-19T07:30:11.135Z,57.60
2022-12-19T07:32:38.182Z,52.55
2022-12-19T07:35:13.133Z,58.35
2022-12-19T07:37:40.566Z,56.80
2022-12-19T07:40:15.092Z,57.88
2022-12-19T07:42:42.002Z,60.90
2022-12-19T07:45:09.277Z,62.90
2022-12-19T07:47:43.089Z,55.75
2022-12-19T07:50:10.285Z,62.40
2022-12-19T07:52:44.184Z,54.47
2022-12-19T07:55:11.284Z,48.63
2022-12-19T07:57:38.275Z,47.25
2022-12-19T08:00:13.087Z,48.58
2022-12-19T08:02:40.204Z,42.22
2022-12-19T08:05:14.136Z,54.95
2022-12-19T08:07:41.375Z,42.42
2022-12-19T08:10:16.178Z,47.35
2022-12-19T08:12:43.118Z,52.75
2022-12-19T08:15:17.123Z,52.90
2022-12-19T08:17:44.199Z,57.83
2022-12-19T08:20:18.134Z,72.68
2022-12-19T08:22:51.201Z,47.58
2022-12-19T08:25:18.076Z,43.88
2022-12-19T08:27:51.190Z,43.40
2022-12-19T08:30:18.280Z,43.58
2022-12-19T08:32:52.159Z,40.05
2022-12-19T08:35:19.144Z,43.53
2022-12-19T08:37:52.125Z,40.15
2022-12-19T08:40:19.157Z,37.58
2022-12-19T08:42:46.076Z,38.92
2022-12-19T08:45:20.147Z,92.00
2022-12-19T08:47:47.072Z,76.53
2022-12-19T08:50:20.135Z,91.90
2022-12-19T08:52:53.882Z,80.10
2022-12-19T08:55:27.320Z,66.57
2022-12-19T08:58:08.611Z,66.35
2022-12-19T09:00:35.792Z,63.75
2022-12-19T09:03:03.591Z,58.13
2022-12-19T09:06:01.518Z,48.10
2022-12-19T09:08:26.581Z,41.15
2022-12-19T09:11:07.243Z,38.63
2022-12-19T09:13:34.954Z,34.15
2022-12-19T09:16:22.440Z,31.70
2022-12-19T09:18:54.888Z,35.78
2022-12-19T09:21:30.275Z,41.28
2022-12-19T09:24:05.370Z,37.70
2022-12-19T09:26:41.301Z,42.40
2022-12-19T09:29:19.823Z,39.70
2022-12-19T09:31:56.156Z,46.13
2022-12-19T09:34:37.553Z,56.92
2022-12-19T09:37:17.307Z,64.18
2022-12-19T09:39:54.324Z,40.05
2022-12-19T09:42:48.228Z,39.25
2022-12-19T09:45:32.625Z,38.38
2022-12-19T09:48:07.655Z,40.83
2022-12-19T09:50:50.982Z,42.00
2022-12-19T09:53:34.320Z,38.97
2022-12-19T09:56:12.898Z,36.88
2022-12-19T09:58:50.334Z,38.83
2022-12-19T10:01:24.561Z,42.78
2022-12-19T10:04:12.287Z,37.72
2022-12-19T10:07:18.409Z,37.75
2022-12-19T10:11:13.994Z,35.58
2022-12-19T10:12:51.391Z,33.58
2022-12-19T10:16:00.854Z,36.28
2022-12-19T10:19:01.385Z,39.25
2022-12-19T10:22:17.124Z,40.03
2022-12-19T10:25:09.117Z,43.58
2022-12-19T10:28:07.173Z,36.60
2022-12-19T10:30:38.566Z,40.47
2022-12-19T10:33:39.246Z,40.15
2022-12-19T10:36:17.197Z,42.00
2022-12-19T10:39:12.450Z,40.17
2022-12-19T10:41:48.218Z,34.78
2022-12-19T10:44:15.139Z,37.75
2022-12-19T10:46:55.281Z,38.38
2022-12-19T10:49:27.942Z,39.70
2022-12-19T10:52:07.271Z,41.65
2022-12-19T10:54:36.979Z,41.83
2022-12-19T10:57:40.210Z,39.80
2022-12-19T11:00:17.836Z,37.67
2022-12-19T11:02:56.397Z,39.38
2022-12-19T11:05:31.218Z,38.55
2022-12-19T11:08:07.185Z,37.80
2022-12-19T11:14:23.320Z,40.40
2022-12-19T11:19:44.453Z,40.78
2022-12-19T11:24:39.465Z,42.45
2022-12-19T11:29:24.949Z,44.00
2022-12-19T11:29:36.341Z,40.70
2022-12-19T11:29:43.288Z,45.92
2022-12-19T11:30:26.151Z,40.63
2022-12-19T11:34:20.878Z,44.72
2022-12-19T11:37:25.281Z,43.40
2022-12-19T11:40:02.630Z,43.75
2022-12-19T11:43:41.530Z,42.60
2022-12-19T11:46:21.533Z,42.40
2022-12-19T11:49:20.211Z,40.95
2022-12-19T11:52:29.564Z,40.17
2022-12-19T11:55:27.201Z,39.67
2022-12-19T11:57:54.163Z,35.67
2022-12-19T12:00:30.247Z,41.22
2022-12-19T12:04:01.953Z,43.60
2022-12-19T12:06:34.023Z,42.45
2022-12-19T12:11:13.057Z,38.05
2022-12-19T12:20:14.998Z,38.88
2022-12-19T12:28:09.712Z,43.03
2022-12-19T12:31:10.434Z,43.83
2022-12-19T12:31:27.902Z,43.75
2022-12-19T12:31:53.293Z,39.05
2022-12-19T12:32:03.520Z,41.20
2022-12-19T12:35:50.038Z,39.92
2022-12-19T12:38:36.960Z,39.25
2022-12-19T12:41:30.253Z,43.67
2022-12-19T12:44:16.280Z,46.67
2022-12-19T12:47:06.611Z,43.47
2022-12-19T12:49:55.271Z,38.22
2022-12-19T12:52:46.791Z,38.45
2022-12-19T12:55:36.254Z,38.17
2022-12-19T12:58:03.323Z,42.17
2022-12-19T13:00:41.258Z,40.55
2022-12-19T13:03:17.270Z,40.90
2022-12-19T13:05:53.242Z,39.95
2022-12-19T13:08:39.792Z,37.78
2022-12-19T13:11:26.233Z,39.67
2022-12-19T13:14:04.299Z,43.35
2022-12-19T13:16:58.304Z,38.03
2022-12-19T13:19:29.084Z,39.65
2022-12-19T13:22:12.317Z,36.67
2022-12-19T13:24:50.326Z,40.40
2022-12-19T13:27:26.325Z,42.42
2022-12-19T13:30:11.681Z,39.10
2022-12-19T13:32:48.296Z,39.00
2022-12-19T13:35:56.505Z,39.25
2022-12-19T13:39:49.600Z,40.03
2022-12-19T13:41:31.133Z,38.80
2022-12-19T13:44:06.293Z,41.55
2022-12-19T13:46:45.699Z,45.15
2022-12-19T13:49:36.259Z,43.05
2022-12-19T13:52:04.368Z,40.97
2022-12-19T13:54:56.328Z,37.08
2022-12-19T13:57:28.675Z,43.92
2022-12-19T14:00:07.257Z,40.33
2022-12-19T14:02:48.459Z,40.15
2022-12-19T14:06:17.832Z,39.95
2022-12-19T14:08:31.300Z,44.17
2022-12-19T14:11:38.340Z,46.03
2022-12-19T14:14:10.123Z,42.22
2022-12-19T14:16:44.544Z,47.15
2022-12-19T14:19:33.301Z,45.05
2022-12-19T14:22:20.782Z,49.28
2022-12-19T14:26:14.495Z,47.00
2022-12-19T14:28:29.388Z,51.33
2022-12-19T14:31:00.705Z,53.28
2022-12-19T14:34:11.083Z,52.05
2022-12-19T14:36:40.020Z,50.35
2022-12-19T14:39:26.547Z,52.75
2022-12-19T14:42:13.252Z,53.55
2022-12-19T14:52:34.560Z,52.47
2022-12-19T14:54:15.505Z,49.90
2022-12-19T14:54:23.269Z,47.03
2022-12-19T14:54:25.032Z,50.60
2022-12-19T14:56:47.406Z,49.60
2022-12-19T14:59:36.477Z,47.17
2022-12-19T15:02:13.362Z,52.40
2022-12-19T15:05:15.128Z,52.90
2022-12-19T15:07:50.352Z,51.83
2022-12-19T15:11:05.550Z,48.45
2022-12-19T15:14:52.741Z,51.70
2022-12-19T15:16:31.601Z,50.25
2022-12-19T15:19:06.417Z,53.03
2022-12-19T15:21:33.408Z,50.13
2022-12-19T15:24:06.397Z,49.75
2022-12-19T15:26:35.493Z,52.25
2022-12-19T15:29:09.377Z,52.75
2022-12-19T15:31:41.529Z,56.20
2022-12-19T15:34:35.868Z,51.65
2022-12-19T15:37:11.395Z,57.97
2022-12-19T15:39:38.627Z,51.10
2022-12-19T15:42:12.333Z,54.22
2022-12-19T15:44:42.317Z,54.40
2022-12-19T15:47:43.393Z,53.17
2022-12-19T15:50:20.464Z,54.92
2022-12-19T15:52:54.432Z,56.38
2022-12-19T15:55:21.474Z,54.65
2022-12-19T15:58:10.413Z,51.63
2022-12-19T16:00:55.775Z,50.45
2022-12-19T16:03:29.713Z,52.85
2022-12-19T16:05:56.908Z,55.08
2022-12-19T16:08:24.519Z,55.42
2022-12-19T16:11:02.597Z,59.75
2022-12-19T16:13:31.405Z,58.63
2022-12-19T16:16:11.137Z,56.20
2022-12-19T16:18:42.203Z,56.33
2022-12-19T16:21:33.904Z,54.92
2022-12-19T16:24:01.307Z,58.63
2022-12-19T16:26:42.379Z,56.88
2022-12-19T16:29:42.104Z,57.95
2022-12-19T16:32:19.440Z,54.85
2022-12-19T16:34:53.469Z,49.85
2022-12-19T16:37:20.556Z,55.30
2022-12-19T16:39:54.451Z,54.65
2022-12-19T16:42:21.382Z,54.15
2022-12-19T16:44:48.531Z,57.97
2022-12-19T16:47:24.547Z,60.72
2022-12-19T16:49:51.512Z,53.88
2022-12-19T16:52:18.377Z,63.45
2022-12-19T16:54:51.404Z,60.63
2022-12-19T16:57:20.079Z,58.75
2022-12-19T16:59:53.348Z,62.05
2022-12-19T17:03:21.531Z,74.88
2022-12-19T17:05:48.546Z,72.55
2022-12-19T17:08:22.405Z,78.45
2022-12-19T17:10:49.304Z,71.32
2022-12-19T17:13:22.344Z,72.30
2022-12-19T17:15:56.097Z,79.85
2022-12-19T17:18:39.421Z,84.63
2022-12-19T17:21:06.483Z,85.10
2022-12-19T17:23:40.411Z,82.88
2022-12-19T17:26:09.448Z,77.38
2022-12-19T17:28:46.395Z,77.65
2022-12-19T17:31:28.757Z,76.13
2022-12-19T17:33:56.286Z,74.82
2022-12-19T17:36:34.802Z,84.70
2022-12-19T17:39:31.443Z,84.10
2022-12-19T17:42:09.918Z,85.10
2022-12-19T17:44:43.393Z,78.95
2022-12-19T17:47:19.800Z,71.78
2022-12-19T17:49:53.402Z,75.35
2022-12-19T17:52:26.383Z,72.18
2022-12-19T17:54:59.408Z,71.05
2022-12-19T17:57:26.371Z,73.22
2022-12-19T17:59:59.449Z,73.57
2022-12-19T18:02:26.629Z,77.97
2022-12-19T18:04:53.785Z,69.55
2022-12-19T18:07:27.410Z,67.68
2022-12-19T18:09:54.308Z,63.13
2022-12-19T18:12:28.430Z,60.00
2022-12-19T18:15:01.476Z,60.15
2022-12-19T18:17:28.466Z,57.75
2022-12-19T18:20:02.417Z,55.08
2022-12-19T18:22:35.448Z,49.83
2022-12-19T18:25:02.981Z,49.63
2022-12-19T18:27:36.447Z,46.60
2022-12-19T18:30:04.130Z,46.63
2022-12-19T18:32:37.421Z,46.58
2022-12-19T18:35:04.850Z,40.97
2022-12-19T18:37:38.372Z,44.08
2022-12-19T18:40:20.993Z,44.85
2022-12-19T18:42:56.382Z,45.55
2022-12-19T18:45:28.052Z,45.17
2022-12-19T18:48:03.447Z,44.60
2022-12-19T18:50:30.416Z,41.42
2022-12-19T18:53:03.430Z,42.88
2022-12-19T18:55:30.381Z,44.63
2022-12-19T18:57:57.285Z,44.25
2022-12-19T19:00:32.435Z,49.88
2022-12-19T19:03:08.602Z,49.53
2022-12-19T19:05:36.171Z,47.15
2022-12-19T19:08:21.451Z,48.97
2022-12-19T19:10:49.792Z,51.53
2022-12-19T19:13:17.531Z,48.85
2022-12-19T19:16:00.503Z,53.42
2022-12-19T19:18:31.623Z,53.22
2022-12-19T19:21:05.414Z,60.03
2022-12-19T19:23:39.374Z,61.10
2022-12-19T19:26:13.459Z,54.05
2022-12-19T19:28:40.476Z,57.58
2022-12-19T19:31:16.611Z,55.78
2022-12-19T19:33:47.218Z,62.00
2022-12-19T19:36:24.498Z,59.50
2022-12-19T19:38:54.165Z,55.38
2022-12-19T19:41:28.463Z,55.67
2022-12-19T19:43:58.892Z,54.70
2022-12-19T19:46:33.648Z,55.00
2022-12-19T19:49:00.607Z,53.33
2022-12-19T19:51:35.668Z,55.92
2022-12-19T19:54:02.632Z,51.97
2022-12-19T19:56:36.509Z,50.03
2022-12-19T19:59:03.518Z,52.42
2022-12-19T20:01:36.645Z,52.40
2022-12-19T20:04:03.879Z,51.22
2022-12-19T20:06:37.513Z,56.13
2022-12-19T20:09:11.411Z,62.35
2022-12-19T20:11:38.295Z,51.20
2022-12-19T20:14:11.460Z,52.85
2022-12-19T20:16:38.448Z,45.38
2022-12-19T20:19:05.429Z,48.78
2022-12-19T20:21:38.445Z,46.47
2022-12-19T20:24:05.713Z,49.35
2022-12-19T20:26:39.461Z,52.90
2022-12-19T20:29:06.457Z,60.03
2022-12-19T20:31:33.440Z,75.70
2022-12-19T20:34:07.528Z,86.05
2022-12-19T20:36:34.510Z,81.53
2022-12-19T20:39:01.471Z,77.03
2022-12-19T20:41:34.475Z,68.40
2022-12-19T20:44:08.465Z,61.10
2022-12-19T20:46:41.542Z,55.53
2022-12-19T20:49:08.541Z,54.83
2022-12-19T20:51:41.507Z,57.58
2022-12-19T20:54:09.168Z,50.70
2022-12-19T20:56:42.527Z,49.08
2022-12-19T20:59:09.584Z,60.55
2022-12-19T21:01:43.588Z,57.08
2022-12-19T21:04:17.773Z,58.05
2022-12-19T21:06:44.833Z,52.78
2022-12-19T21:09:18.515Z,56.33
2022-12-19T21:11:51.457Z,55.03
2022-12-19T21:14:18.342Z,54.75
2022-12-19T21:16:51.480Z,52.92
2022-12-19T21:19:18.405Z,51.22
2022-12-19T21:21:52.503Z,58.88
2022-12-19T21:24:19.524Z,49.50
2022-12-19T21:26:46.473Z,56.55
2022-12-19T21:29:20.508Z,62.05
2022-12-19T21:31:53.514Z,66.50
2022-12-19T21:34:20.429Z,56.42
2022-12-19T21:36:53.494Z,57.33
2022-12-19T21:39:20.422Z,51.88
2022-12-19T21:41:53.562Z,53.10
2022-12-19T21:44:26.567Z,50.67
2022-12-19T21:46:53.598Z,52.55
2022-12-19T21:49:27.525Z,55.42
2022-12-19T21:51:54.436Z,56.83
2022-12-19T21:54:27.480Z,58.40
2022-12-19T21:56:54.436Z,54.83
2022-12-19T21:59:27.464Z,56.90
2022-12-19T22:02:01.376Z,56.75
2022-12-19T22:04:35.545Z,59.10
2022-12-19T22:07:04.548Z,57.45
2022-12-19T22:09:31.677Z,53.75
2022-12-19T22:12:05.486Z,49.35
2022-12-19T22:14:32.360Z,53.25
2022-12-19T22:17:05.550Z,56.67
2022-12-19T22:19:32.537Z,59.72
2022-12-19T22:21:59.465Z,58.25
2022-12-19T22:24:32.552Z,59.55
2022-12-19T22:26:59.476Z,64.50
2022-12-19T22:29:32.549Z,65.25
2022-12-19T22:32:05.588Z,65.53
2022-12-19T22:34:32.483Z,58.53
2022-12-19T22:37:05.589Z,59.03
2022-12-19T22:39:32.571Z,60.88
2022-12-19T22:41:59.507Z,55.90
2022-12-19T22:44:32.540Z,57.53
2022-12-19T22:46:59.395Z,59.60
2022-12-19T22:49:32.491Z,62.80
2022-12-19T22:51:59.465Z,61.05
2022-12-19T22:54:32.538Z,62.45
2022-12-19T22:56:59.481Z,60.83
2022-12-19T22:59:32.573Z,63.72
2022-12-19T23:02:06.306Z,60.25
2022-12-19T23:04:39.519Z,64.07
2022-12-19T23:07:06.377Z,58.88
2022-12-19T23:09:39.582Z,58.83
2022-12-19T23:12:13.529Z,60.22
2022-12-19T23:14:40.916Z,58.85
2022-12-19T23:17:07.952Z,60.38
2022-12-19T23:19:41.862Z,66.75
2022-12-19T23:22:08.960Z,67.20
2022-12-19T23:27:50.300Z,61.78
2022-12-19T23:30:24.697Z,62.97
2022-12-19T23:33:10.230Z,60.90
2022-12-19T23:38:37.788Z,62.38
2022-12-19T23:41:14.572Z,61.50
2022-12-19T23:47:12.580Z,59.97
2022-12-19T23:57:20.910Z,60.95
